createdAt,value
2022-10-08T00:01:56.442Z,100703.16
2022-10-08T00:04:24.221Z,100701.50
2022-10-08T00:06:52.131Z,100706.91
2022-10-08T00:09:19.883Z,100701.66
2022-10-08T00:11:47.642Z,100708.38
2022-10-08T00:14:17.296Z,100706.06
2022-10-08T00:16:45.204Z,100703.97
2022-10-08T00:19:16.085Z,100706.69
2022-10-08T00:21:46.123Z,100708.56
2022-10-08T00:24:17.242Z,100706.88
2022-10-08T00:26:45.495Z,100696.00
2022-10-08T00:29:15.347Z,100703.31
2022-10-08T00:31:46.908Z,100698.91
2022-10-08T00:34:17.497Z,100686.75
2022-10-08T00:36:47.345Z,100698.59
2022-10-08T00:39:18.384Z,100693.81
2022-10-08T00:41:48.305Z,100689.66
2022-10-08T00:44:54.459Z,100693.41
2022-10-08T00:47:36.463Z,100694.25
2022-10-08T00:50:09.426Z,100693.41
2022-10-08T00:52:42.528Z,100689.44
2022-10-08T00:55:12.674Z,100684.59
2022-10-08T00:57:42.810Z,100678.97
2022-10-08T01:00:13.387Z,100689.44
2022-10-08T01:02:42.733Z,100689.66
2022-10-08T01:05:12.726Z,100686.69
2022-10-08T01:07:49.339Z,100679.56
2022-10-08T01:10:27.257Z,100691.06
2022-10-08T01:13:11.263Z,100676.84
2022-10-08T01:15:45.722Z,100676.75
2022-10-08T01:18:23.319Z,100676.19
2022-10-08T01:21:00.252Z,100671.78
2022-10-08T01:23:43.093Z,100672.56
2022-10-08T01:26:25.994Z,100674.88
2022-10-08T01:29:02.730Z,100673.25
2022-10-08T01:31:33.664Z,100652.38
2022-10-08T01:34:07.823Z,100682.81
2022-10-08T01:36:39.359Z,100679.09
2022-10-08T01:39:11.716Z,100664.09
2022-10-08T01:41:40.734Z,100684.13
2022-10-08T01:44:16.363Z,100682.63
2022-10-08T01:46:47.925Z,100675.09
2022-10-08T01:49:19.585Z,100673.38
2022-10-08T01:51:53.517Z,100676.88
2022-10-08T01:54:23.057Z,100686.44
2022-10-08T01:56:52.284Z,100679.41
2022-10-08T01:59:25.419Z,100666.94
2022-10-08T02:01:58.110Z,100668.41
2022-10-08T02:04:35.186Z,100674.56
2022-10-08T02:07:07.900Z,100681.41
2022-10-08T02:09:38.690Z,100684.19
2022-10-08T02:12:06.957Z,100680.13
2022-10-08T02:14:39.005Z,100674.91
2022-10-08T02:17:19.288Z,100679.47
2022-10-08T02:19:54.353Z,100677.25
2022-10-08T02:22:27.076Z,100680.56
2022-10-08T02:25:01.797Z,100681.84
2022-10-08T02:27:38.013Z,100678.34
2022-10-08T02:30:11.033Z,100684.44
2022-10-08T02:32:50.419Z,100678.78
2022-10-08T02:35:25.191Z,100674.44
2022-10-08T02:37:59.004Z,100667.56
2022-10-08T02:40:28.362Z,100671.75
2022-10-08T02:43:01.399Z,100671.16
2022-10-08T02:45:35.560Z,100669.28
2022-10-08T02:48:09.380Z,100670.59
2022-10-08T02:50:40.863Z,100678.75
2022-10-08T02:53:09.119Z,100675.84
2022-10-08T02:55:43.102Z,100670.66
2022-10-08T02:58:13.480Z,100674.69
2022-10-08T03:00:49.952Z,100673.84
2022-10-08T03:03:23.947Z,100680.00
2022-10-08T03:05:52.720Z,100681.88
2022-10-08T03:08:22.430Z,100665.97
2022-10-08T03:10:51.028Z,100678.94
2022-10-08T03:13:19.396Z,100674.38
2022-10-08T03:15:52.303Z,100675.81
2022-10-08T03:18:21.941Z,100677.09
2022-10-08T03:20:51.820Z,100688.22
2022-10-08T03:23:20.248Z,100684.66
2022-10-08T03:25:47.997Z,100674.03
2022-10-08T03:28:15.795Z,100681.94
2022-10-08T03:30:44.820Z,100690.31
2022-10-08T03:33:14.038Z,100688.66
2022-10-08T03:35:45.819Z,100689.31
2022-10-08T03:38:15.349Z,100704.81
2022-10-08T03:40:43.214Z,100708.19
2022-10-08T03:43:11.178Z,100713.19
2022-10-08T03:45:38.899Z,100708.78
2022-10-08T03:48:06.658Z,100712.09
2022-10-08T03:50:35.790Z,100712.94
2022-10-08T03:53:03.539Z,100713.97
2022-10-08T03:55:31.309Z,100713.66
2022-10-08T03:57:59.122Z,100710.50
2022-10-08T04:00:26.926Z,100713.31
2022-10-08T04:02:54.782Z,100734.88
2022-10-08T04:05:22.601Z,100728.09
2022-10-08T04:07:51.718Z,100737.66
2022-10-08T04:10:19.424Z,100740.94
2022-10-08T04:12:47.517Z,100738.09
2022-10-08T04:15:15.537Z,100732.53
2022-10-08T04:17:43.588Z,100736.47
2022-10-08T04:20:12.861Z,100734.56
2022-10-08T04:22:41.027Z,100740.22
2022-10-08T04:25:10.502Z,100745.88
2022-10-08T04:27:38.280Z,100746.53
2022-10-08T04:30:07.430Z,100740.31
2022-10-08T04:32:35.152Z,100740.69
2022-10-08T04:35:02.949Z,100749.25
2022-10-08T04:37:30.718Z,100746.72
2022-10-08T04:39:58.593Z,100747.28
2022-10-08T04:42:27.958Z,100760.34
2022-10-08T04:44:55.706Z,100756.94
2022-10-08T04:47:23.594Z,100752.94
2022-10-08T04:49:51.336Z,100751.03
2022-10-08T04:52:20.536Z,100757.66
2022-10-08T04:54:48.539Z,100762.84
2022-10-08T04:57:16.461Z,100774.47
2022-10-08T05:00:13.130Z,100765.66
2022-10-08T05:02:36.169Z,100766.84
2022-10-08T05:05:04.193Z,100768.06
2022-10-08T05:07:31.926Z,100770.31
2022-10-08T05:09:59.731Z,100769.09
2022-10-08T05:12:27.462Z,100780.44
2022-10-08T05:14:56.585Z,100781.97
2022-10-08T05:17:24.359Z,100781.34
2022-10-08T05:19:52.824Z,100786.56
2022-10-08T05:22:20.600Z,100784.88
2022-10-08T05:24:48.384Z,100778.81
2022-10-08T05:27:16.183Z,100777.72
2022-10-08T05:29:43.982Z,100781.84
2022-10-08T05:32:13.032Z,100772.72
2022-10-08T05:34:40.856Z,100766.06
2022-10-08T05:37:14.475Z,100784.50
2022-10-08T05:39:42.228Z,100777.78
2022-10-08T05:42:10.050Z,100799.31
2022-10-08T05:44:37.993Z,100786.88
2022-10-08T05:47:05.982Z,100774.22
2022-10-08T05:49:35.062Z,100797.91
2022-10-08T05:52:03.190Z,100804.13
2022-10-08T05:54:30.945Z,100809.72
2022-10-08T05:56:58.856Z,100807.38
2022-10-08T05:59:26.635Z,100801.63
2022-10-08T06:01:54.377Z,100805.84
2022-10-08T06:04:22.381Z,100778.78
2022-10-08T06:06:51.632Z,100819.66
2022-10-08T06:09:21.497Z,100817.50
2022-10-08T06:11:49.872Z,100812.09
2022-10-08T06:14:19.222Z,100818.88
2022-10-08T06:16:47.464Z,100812.66
2022-10-08T06:19:15.635Z,100810.84
2022-10-08T06:21:43.426Z,100795.50
2022-10-08T06:24:13.250Z,100811.41
2022-10-08T06:26:43.651Z,100816.06
2022-10-08T06:29:14.945Z,100817.09
2022-10-08T06:31:42.823Z,100807.34
2022-10-08T06:34:10.716Z,100811.72
2022-10-08T06:36:38.612Z,100810.69
2022-10-08T06:39:08.947Z,100806.94
2022-10-08T06:41:38.583Z,100806.53
2022-10-08T06:44:08.555Z,100808.41
2022-10-08T06:46:36.423Z,100820.31
2022-10-08T06:49:05.977Z,100818.63
2022-10-08T06:51:34.546Z,100828.88
2022-10-08T06:54:07.378Z,100817.59
2022-10-08T06:56:38.516Z,100829.09
2022-10-08T06:59:07.328Z,100839.75
2022-10-08T07:01:36.529Z,100833.47
2022-10-08T07:04:06.678Z,100838.69
2022-10-08T07:06:34.460Z,100844.75
2022-10-08T07:09:03.260Z,100839.31
2022-10-08T07:11:33.301Z,100846.03
2022-10-08T07:14:02.622Z,100847.69
2022-10-08T07:16:30.589Z,100852.91
2022-10-08T07:18:59.352Z,100848.94
2022-10-08T07:21:28.569Z,100840.38
2022-10-08T07:23:56.996Z,100853.78
2022-10-08T07:26:26.527Z,100853.75
2022-10-08T07:28:56.879Z,100854.81
2022-10-08T07:31:29.525Z,100867.13
2022-10-08T07:33:58.127Z,100860.69
2022-10-08T07:36:28.370Z,100876.16
2022-10-08T07:38:57.173Z,100868.84
2022-10-08T07:41:27.024Z,100875.09
2022-10-08T07:43:57.778Z,100871.09
2022-10-08T07:46:27.765Z,100873.41
2022-10-08T07:48:56.866Z,100876.56
2022-10-08T07:51:24.687Z,100878.00
2022-10-08T07:53:52.934Z,100882.97
2022-10-08T07:56:22.814Z,100891.72
2022-10-08T07:58:51.660Z,100892.13
2022-10-08T08:01:21.589Z,100898.78
2022-10-08T08:03:55.560Z,100883.00
2022-10-08T08:06:25.149Z,100881.84
2022-10-08T08:08:53.535Z,100886.25
2022-10-08T08:11:22.856Z,100885.97
2022-10-08T08:13:51.152Z,100878.38
2022-10-08T08:16:21.084Z,100881.31
2022-10-08T08:18:50.274Z,100883.31
2022-10-08T08:21:21.444Z,100873.63
2022-10-08T08:23:59.700Z,100881.88
2022-10-08T08:26:34.716Z,100883.47
2022-10-08T08:29:05.683Z,100884.16
2022-10-08T08:31:35.459Z,100886.44
2022-10-08T08:34:08.262Z,100851.50
2022-10-08T08:36:43.458Z,100834.31
2022-10-08T08:39:18.521Z,100837.06
2022-10-08T08:42:02.697Z,100893.88
2022-10-08T08:44:35.648Z,100872.00
2022-10-08T08:47:13.074Z,100887.78
2022-10-08T08:49:43.611Z,100866.00
2022-10-08T08:52:18.073Z,100873.59
2022-10-08T08:54:49.502Z,100864.38
2022-10-08T08:57:34.116Z,100881.63
2022-10-08T09:00:09.954Z,100846.31
2022-10-08T09:02:49.898Z,100893.88
2022-10-08T09:05:25.165Z,100907.06
2022-10-08T09:08:04.127Z,100909.09
2022-10-08T09:10:44.766Z,100926.47
2022-10-08T09:13:16.632Z,100919.72
2022-10-08T09:15:47.518Z,100914.22
2022-10-08T09:18:18.066Z,100918.03
2022-10-08T09:20:46.646Z,100938.63
2022-10-08T09:23:20.263Z,100912.81
2022-10-08T09:25:53.755Z,100916.16
2022-10-08T09:28:47.172Z,100936.72
2022-10-08T09:31:26.176Z,100926.56
2022-10-08T09:34:10.366Z,100935.66
2022-10-08T09:36:44.666Z,100951.25
2022-10-08T09:39:20.460Z,100950.47
2022-10-08T09:42:07.132Z,100935.75
2022-10-08T09:44:45.906Z,100943.75
2022-10-08T09:47:17.203Z,100924.44
2022-10-08T09:50:00.933Z,100909.34
2022-10-08T09:52:38.058Z,100970.53
2022-10-08T09:55:23.563Z,100976.25
2022-10-08T09:57:59.270Z,100963.38
2022-10-08T10:00:33.051Z,100941.22
2022-10-08T10:03:26.521Z,100954.44
2022-10-08T10:16:40.115Z,100988.56
2022-10-08T10:19:27.963Z,100999.69
2022-10-08T10:22:05.763Z,100927.91
2022-10-08T10:24:54.429Z,100957.03
2022-10-08T10:27:41.488Z,100991.41
2022-10-08T10:31:29.980Z,100931.28
2022-10-08T10:34:05.793Z,100951.28
2022-10-08T10:36:50.513Z,100945.97
2022-10-08T10:42:41.915Z,100974.28
2022-10-08T10:45:27.160Z,100988.06
2022-10-08T10:48:03.295Z,100952.41
2022-10-08T10:50:43.405Z,100964.31
2022-10-08T10:53:21.378Z,100968.00
2022-10-08T10:56:02.243Z,100973.88
2022-10-08T10:58:55.857Z,100958.53
2022-10-08T11:01:45.531Z,100968.56
2022-10-08T11:04:31.435Z,100990.66
2022-10-08T11:07:40.477Z,100983.75
2022-10-08T11:10:27.723Z,100955.03
2022-10-08T11:13:07.545Z,101014.53
2022-10-08T11:15:44.365Z,100997.06
2022-10-08T11:18:37.485Z,101013.63
2022-10-08T11:21:21.578Z,101011.16
2022-10-08T11:24:15.537Z,101007.91
2022-10-08T11:26:52.467Z,101004.13
2022-10-08T11:29:41.546Z,101001.47
2022-10-08T11:32:43.826Z,101005.47
2022-10-08T11:35:49.944Z,101012.81
2022-10-08T11:39:13.143Z,100960.78
2022-10-08T11:42:39.930Z,101010.22
2022-10-08T11:45:33.351Z,101010.63
2022-10-08T11:48:39.752Z,100954.84
2022-10-08T11:51:42.910Z,101004.41
2022-10-08T11:54:20.162Z,101005.38
2022-10-08T11:57:04.072Z,100984.47
2022-10-08T11:59:40.024Z,100986.63
2022-10-08T12:03:09.353Z,101007.56
2022-10-08T12:10:56.030Z,101002.97
2022-10-08T12:17:13.145Z,100998.00
2022-10-08T12:20:26.704Z,101003.22
2022-10-08T12:23:41.997Z,100980.34
2022-10-08T12:26:30.422Z,100972.38
2022-10-08T12:29:09.033Z,101009.59
2022-10-08T12:31:49.600Z,101006.59
2022-10-08T12:34:34.054Z,100952.03
2022-10-08T12:37:26.705Z,100989.06
2022-10-08T12:40:24.459Z,100955.63
2022-10-08T12:43:10.313Z,100976.38
2022-10-08T12:45:48.328Z,101014.28
2022-10-08T12:48:33.986Z,100983.13
2022-10-08T12:51:17.431Z,100962.44
2022-10-08T12:53:48.797Z,101012.13
2022-10-08T12:56:30.574Z,100966.38
2022-10-08T12:59:06.928Z,100961.97
2022-10-08T13:05:56.573Z,100944.03
2022-10-08T13:12:53.167Z,100964.66
2022-10-08T13:19:09.567Z,100991.16
2022-10-08T13:21:42.207Z,100976.16
2022-10-08T13:24:47.354Z,100989.97
2022-10-08T13:27:31.150Z,100962.94
2022-10-08T13:30:29.648Z,100960.66
2022-10-08T13:33:04.106Z,100981.75
2022-10-08T13:35:33.334Z,100983.41
2022-10-08T13:38:05.308Z,100980.81
2022-10-08T13:40:33.299Z,100965.69
2022-10-08T13:43:44.526Z,100993.41
2022-10-08T13:46:15.846Z,100992.16
2022-10-08T13:48:44.126Z,100982.25
2022-10-08T13:51:12.560Z,101007.19
2022-10-08T13:53:42.258Z,101000.78
2022-10-08T13:56:11.329Z,101009.88
2022-10-08T13:58:41.880Z,101005.72
2022-10-08T14:01:16.383Z,100970.53
2022-10-08T14:03:49.163Z,100996.91
2022-10-08T14:06:32.610Z,100995.31
2022-10-08T14:09:11.223Z,100991.22
2022-10-08T14:12:05.349Z,100961.19
2022-10-08T14:14:34.684Z,100978.66
2022-10-08T14:17:03.324Z,100994.13
2022-10-08T14:19:31.999Z,100979.16
2022-10-08T14:22:01.120Z,100991.47
2022-10-08T14:24:32.051Z,100997.91
2022-10-08T14:27:08.494Z,100998.06
2022-10-08T14:29:46.836Z,100946.06
2022-10-08T14:32:21.600Z,100983.00
2022-10-08T14:35:36.398Z,101003.31
2022-10-08T14:41:17.943Z,100999.63
2022-10-08T14:43:47.209Z,100978.56
2022-10-08T14:46:46.712Z,100996.00
2022-10-08T14:49:14.935Z,101001.22
2022-10-08T14:51:43.366Z,101007.13
2022-10-08T14:54:11.970Z,101002.13
2022-10-08T14:56:42.078Z,100990.63
2022-10-08T14:59:10.520Z,101002.56
2022-10-08T15:01:49.237Z,100987.81
2022-10-08T15:04:42.906Z,100988.72
2022-10-08T15:07:14.194Z,100965.31
2022-10-08T15:09:50.587Z,100973.72
2022-10-08T15:12:28.965Z,100978.38
2022-10-08T15:14:57.418Z,100964.38
2022-10-08T15:17:26.794Z,100969.03
2022-10-08T15:19:54.854Z,100966.72
2022-10-08T15:22:22.758Z,100975.06
2022-10-08T15:24:50.581Z,100965.50
2022-10-08T15:27:20.747Z,100967.94
2022-10-08T15:29:49.142Z,100962.75
2022-10-08T15:32:16.935Z,100953.38
2022-10-08T15:34:46.053Z,100958.50
2022-10-08T15:37:14.598Z,100950.94
2022-10-08T15:39:42.863Z,100960.50
2022-10-08T15:42:12.324Z,100969.28
2022-10-08T15:44:40.124Z,100973.16
2022-10-08T15:47:11.542Z,100962.84
2022-10-08T15:49:41.710Z,100978.31
2022-10-08T15:52:13.748Z,100995.69
2022-10-08T15:54:43.121Z,100988.91
2022-10-08T15:57:13.203Z,101021.28
2022-10-08T15:59:49.986Z,101015.78
2022-10-08T16:02:20.458Z,101025.69
2022-10-08T16:04:52.475Z,101032.72
2022-10-08T16:07:22.823Z,101028.16
2022-10-08T16:09:50.831Z,101032.91
2022-10-08T16:12:18.809Z,101036.03
2022-10-08T16:14:48.000Z,101051.50
2022-10-08T16:17:15.862Z,101030.53
2022-10-08T16:19:43.939Z,101053.75
2022-10-08T16:22:11.900Z,101057.69
2022-10-08T16:24:41.354Z,101050.78
2022-10-08T16:27:09.277Z,101062.53
2022-10-08T16:29:37.159Z,101059.34
2022-10-08T16:32:05.230Z,101064.00
2022-10-08T16:34:33.286Z,101071.91
2022-10-08T16:37:02.259Z,101066.88
2022-10-08T16:39:30.458Z,101053.50
2022-10-08T16:42:03.124Z,101047.59
2022-10-08T16:44:32.048Z,101078.63
2022-10-08T16:47:00.363Z,101058.81
2022-10-08T16:49:30.159Z,101066.94
2022-10-08T16:52:01.308Z,101102.47
2022-10-08T16:54:30.074Z,101056.97
2022-10-08T16:57:00.065Z,101122.34
2022-10-08T16:59:29.947Z,101126.28
2022-10-08T17:02:02.749Z,101126.66
2022-10-08T17:04:41.788Z,101135.47
2022-10-08T17:07:11.193Z,101140.31
2022-10-08T17:09:42.684Z,101097.00
2022-10-08T17:12:20.977Z,101143.91
2022-10-08T17:14:50.883Z,101158.13
2022-10-08T17:17:20.179Z,101166.81
2022-10-08T17:19:49.105Z,101175.66
2022-10-08T17:22:24.948Z,101120.81
2022-10-08T17:24:54.395Z,101183.63
2022-10-08T17:27:25.422Z,101161.88
2022-10-08T17:30:02.420Z,101184.72
2022-10-08T17:32:33.297Z,101171.09
2022-10-08T17:35:03.305Z,101193.97
2022-10-08T17:37:36.902Z,101137.63
2022-10-08T17:40:15.636Z,101202.53
2022-10-08T17:42:48.266Z,101214.69
2022-10-08T17:45:22.404Z,101200.66
2022-10-08T17:47:53.449Z,101211.34
2022-10-08T17:50:26.546Z,101199.22
2022-10-08T17:52:59.229Z,101177.00
2022-10-08T17:55:29.270Z,101186.00
2022-10-08T17:58:00.530Z,101211.75
2022-10-08T18:00:30.407Z,101194.31
2022-10-08T18:03:02.214Z,101243.00
2022-10-08T18:05:31.430Z,101248.16
2022-10-08T18:08:24.960Z,101238.19
2022-10-08T18:10:54.825Z,101249.63
2022-10-08T18:13:29.165Z,101249.53
2022-10-08T18:16:13.252Z,101235.91
2022-10-08T18:18:43.923Z,101270.22
2022-10-08T18:21:13.882Z,101270.72
2022-10-08T18:23:44.143Z,101276.09
2022-10-08T18:26:21.009Z,101276.28
2022-10-08T18:28:53.179Z,101258.66
2022-10-08T18:31:23.171Z,101255.72
2022-10-08T18:33:55.548Z,101287.44
2022-10-08T18:36:26.753Z,101272.13
2022-10-08T18:39:02.505Z,101294.63
2022-10-08T18:41:32.997Z,101257.19
2022-10-08T18:44:06.148Z,101284.31
2022-10-08T18:46:35.895Z,101261.91
2022-10-08T18:49:04.658Z,101302.34
2022-10-08T18:51:34.318Z,101293.06
2022-10-08T18:54:02.436Z,101294.63
2022-10-08T18:56:34.430Z,101282.84
2022-10-08T18:59:05.712Z,101313.97
2022-10-08T19:01:36.530Z,101316.03
2022-10-08T19:04:06.092Z,101313.81
2022-10-08T19:06:36.279Z,101314.63
2022-10-08T19:09:05.912Z,101301.75
2022-10-08T19:11:37.693Z,101324.47
2022-10-08T19:14:11.967Z,101319.06
2022-10-08T19:16:41.539Z,101312.25
2022-10-08T19:19:13.502Z,101327.66
2022-10-08T19:21:41.520Z,101296.53
2022-10-08T19:24:13.531Z,101311.47
2022-10-08T19:26:41.332Z,101325.66
2022-10-08T19:29:15.254Z,101331.75
2022-10-08T19:31:43.837Z,101320.56
2022-10-08T19:34:14.708Z,101301.00
2022-10-08T19:36:42.645Z,101340.44
2022-10-08T19:39:13.420Z,101327.22
2022-10-08T19:41:42.910Z,101328.91
2022-10-08T19:44:12.714Z,101351.25
2022-10-08T19:46:40.676Z,101332.09
2022-10-08T19:49:09.841Z,101324.72
2022-10-08T19:51:38.553Z,101338.53
2022-10-08T19:54:06.643Z,101346.09
2022-10-08T19:56:35.801Z,101365.44
2022-10-08T19:59:05.295Z,101340.94
2022-10-08T20:01:37.393Z,101338.22
2022-10-08T20:04:08.583Z,101360.78
2022-10-08T20:06:39.913Z,101372.31
2022-10-08T20:09:12.184Z,101384.91
2022-10-08T20:11:41.528Z,101368.47
2022-10-08T20:14:09.644Z,101399.97
2022-10-08T20:16:41.131Z,101392.97
2022-10-08T20:19:14.779Z,101387.09
2022-10-08T20:21:42.962Z,101382.78
2022-10-08T20:24:11.433Z,101382.63
2022-10-08T20:26:41.070Z,101383.41
2022-10-08T20:29:11.341Z,101370.25
2022-10-08T20:31:42.348Z,101390.63
2022-10-08T20:34:13.632Z,101391.91
2022-10-08T20:36:42.082Z,101386.31
2022-10-08T20:39:12.048Z,101391.38
2022-10-08T20:41:40.429Z,101368.94
2022-10-08T20:44:09.115Z,101391.13
2022-10-08T20:46:38.063Z,101399.25
2022-10-08T20:49:08.134Z,101394.94
2022-10-08T20:51:36.103Z,101380.28
2022-10-08T20:54:06.765Z,101383.91
2022-10-08T20:56:39.902Z,101411.56
2022-10-08T20:59:08.787Z,101398.63
2022-10-08T21:01:41.348Z,101408.97
2022-10-08T21:04:11.393Z,101388.16
2022-10-08T21:06:41.910Z,101368.53
2022-10-08T21:09:10.390Z,101416.97
2022-10-08T21:11:39.657Z,101390.53
2022-10-08T21:14:10.801Z,101422.66
2022-10-08T21:16:40.978Z,101422.38
2022-10-08T21:19:14.988Z,101409.09
2022-10-08T21:21:43.392Z,101374.22
2022-10-08T21:24:11.925Z,101425.50
2022-10-08T21:26:42.120Z,101392.28
2022-10-08T21:29:12.714Z,101432.66
2022-10-08T21:31:42.369Z,101432.31
2022-10-08T21:34:14.138Z,101434.88
2022-10-08T21:36:44.920Z,101428.97
2022-10-08T21:39:16.886Z,101429.00
2022-10-08T21:41:45.547Z,101431.00
2022-10-08T21:44:14.324Z,101416.50
2022-10-08T21:46:43.387Z,101445.88
2022-10-08T21:49:14.909Z,101437.44
2022-10-08T21:51:43.247Z,101426.47
2022-10-08T21:54:11.965Z,101434.41
2022-10-08T21:56:42.270Z,101446.78
2022-10-08T21:59:14.491Z,101420.41
2022-10-08T22:01:44.677Z,101439.50
2022-10-08T22:04:15.571Z,101436.28
2022-10-08T22:06:46.119Z,101443.56
2022-10-08T22:09:17.244Z,101427.72
2022-10-08T22:11:45.665Z,101427.56
2022-10-08T22:14:13.765Z,101451.03
2022-10-08T22:16:42.853Z,101439.53
2022-10-08T22:19:11.000Z,101448.84
2022-10-08T22:21:40.376Z,101455.41
2022-10-08T22:24:08.551Z,101449.69
2022-10-08T22:26:38.521Z,101416.25
2022-10-08T22:29:08.053Z,101433.47
2022-10-08T22:31:36.267Z,101454.06
2022-10-08T22:34:05.090Z,101442.94
2022-10-08T22:36:34.685Z,101443.94
2022-10-08T22:39:04.087Z,101441.25
2022-10-08T22:41:33.210Z,101434.66
2022-10-08T22:44:02.649Z,101432.78
2022-10-08T22:46:32.368Z,101434.84
2022-10-08T22:49:01.911Z,101444.44
2022-10-08T22:51:30.867Z,101438.34
2022-10-08T22:53:59.756Z,101442.75
2022-10-08T22:56:32.101Z,101446.81
2022-10-08T22:59:00.948Z,101451.03
2022-10-08T23:01:30.306Z,101436.19
2022-10-08T23:03:58.900Z,101448.50
2022-10-08T23:06:29.538Z,101401.41
2022-10-08T23:08:58.927Z,101419.13
2022-10-08T23:11:27.408Z,101445.13
2022-10-08T23:13:58.772Z,101447.34
2022-10-08T23:16:28.287Z,101444.97
2022-10-08T23:18:58.032Z,101433.84
2022-10-08T23:21:26.455Z,101441.56
2022-10-08T23:23:54.926Z,101438.34
2022-10-08T23:26:23.938Z,101421.66
2022-10-08T23:28:53.024Z,101435.31
2022-10-08T23:31:24.136Z,101425.03
2022-10-08T23:33:53.810Z,101446.25
2022-10-08T23:36:24.059Z,101434.44
2022-10-08T23:38:52.758Z,101448.75
2022-10-08T23:41:20.754Z,101431.84
2022-10-08T23:43:50.963Z,101454.34
2022-10-08T23:46:22.081Z,101459.72
2022-10-08T23:48:52.199Z,101449.75
2022-10-08T23:51:21.491Z,101453.31
2022-10-08T23:53:49.873Z,101453.81
2022-10-08T23:56:18.047Z,101430.34
2022-10-08T23:58:45.956Z,101448.59
